createdAt,value
2017-05-19T00:01:47.698Z,6.56
2017-05-19T00:04:17.234Z,6.26
2017-05-19T00:06:47.519Z,7.16
2017-05-19T00:09:17.047Z,6.36
2017-05-19T00:11:46.575Z,7.06
2017-05-19T00:14:16.858Z,7.06
2017-05-19T00:16:46.391Z,6.36
2017-05-19T00:19:16.686Z,6.72
2017-05-19T00:21:46.218Z,7.16
2017-05-19T00:24:16.522Z,7.20
2017-05-19T00:26:46.046Z,6.52
2017-05-19T00:29:16.327Z,7.14
2017-05-19T00:31:45.866Z,8.06
2017-05-19T00:34:15.442Z,8.00
2017-05-19T00:36:45.570Z,8.58
2017-05-19T00:39:15.614Z,7.32
2017-05-19T00:41:45.174Z,8.54
2017-05-19T00:44:14.718Z,8.74
2017-05-19T00:46:44.246Z,9.32
2017-05-19T00:49:14.822Z,7.50
2017-05-19T00:51:44.350Z,7.02
2017-05-19T00:54:13.906Z,8.00
2017-05-19T00:56:43.438Z,6.86
2017-05-19T00:59:12.986Z,7.58
2017-05-19T01:01:42.510Z,7.86
2017-05-19T01:04:13.147Z,7.54
2017-05-19T01:06:42.681Z,8.42
2017-05-19T01:09:12.250Z,8.04
2017-05-19T01:11:41.781Z,8.68
2017-05-19T01:14:11.362Z,8.84
2017-05-19T01:16:41.626Z,9.34
2017-05-19T01:19:11.198Z,9.62
2017-05-19T01:21:40.737Z,8.80
2017-05-19T01:24:10.274Z,8.58
2017-05-19T01:26:39.837Z,9.32
2017-05-19T01:29:10.365Z,7.80
2017-05-19T01:31:39.921Z,8.66
2017-05-19T01:34:09.453Z,8.82
2017-05-19T01:36:39.025Z,7.68
2017-05-19T01:39:09.309Z,8.68
2017-05-19T01:41:38.861Z,8.90
2017-05-19T01:44:09.151Z,9.12
2017-05-19T01:46:38.693Z,8.04
2017-05-19T01:49:08.966Z,7.42
2017-05-19T01:51:38.526Z,8.40
2017-05-19T01:54:08.798Z,7.40
2017-05-19T01:56:38.346Z,8.34
2017-05-19T01:59:08.625Z,8.74
2017-05-19T02:01:39.126Z,7.90
2017-05-19T02:04:08.649Z,8.66
2017-05-19T02:06:38.201Z,7.96
2017-05-19T02:09:07.769Z,7.76
2017-05-19T02:11:37.297Z,7.66
2017-05-19T02:14:06.857Z,7.34
2017-05-19T02:16:36.389Z,7.38
2017-05-19T02:19:05.921Z,7.56
2017-05-19T02:21:35.496Z,7.50
2017-05-19T02:24:05.021Z,7.30
2017-05-19T02:26:34.581Z,7.30
2017-05-19T02:29:04.113Z,6.72
2017-05-19T02:31:33.641Z,7.30
2017-05-19T02:34:03.211Z,6.64
2017-05-19T02:36:32.728Z,7.24
2017-05-19T02:39:02.285Z,7.50
2017-05-19T02:41:32.557Z,7.44
2017-05-19T02:44:02.105Z,6.32
2017-05-19T02:46:32.408Z,7.58
2017-05-19T02:49:02.025Z,7.42
2017-05-19T02:51:32.300Z,6.96
2017-05-19T02:54:01.856Z,7.00
2017-05-19T02:56:32.136Z,7.32
2017-05-19T02:59:01.700Z,7.40
2017-05-19T03:01:32.956Z,7.30
2017-05-19T03:04:02.500Z,6.98
2017-05-19T03:06:32.040Z,6.98
2017-05-19T03:09:01.621Z,6.96
2017-05-19T03:11:34.357Z,7.44
2017-05-19T03:14:03.925Z,7.38
2017-05-19T03:16:33.463Z,6.62
2017-05-19T03:19:06.796Z,7.66
2017-05-19T03:21:52.992Z,7.44
2017-05-19T03:24:23.515Z,6.98
2017-05-19T03:26:55.037Z,6.82
2017-05-19T03:29:25.612Z,7.20
2017-05-19T03:31:59.467Z,7.50
2017-05-19T03:34:30.025Z,7.20
2017-05-19T03:36:59.564Z,7.74
2017-05-19T03:39:29.124Z,8.34
2017-05-19T03:41:59.688Z,7.40
2017-05-19T03:44:32.064Z,8.78
2017-05-19T03:47:05.316Z,7.90
2017-05-19T03:49:34.876Z,7.38
2017-05-19T03:52:04.408Z,7.86
2017-05-19T03:54:33.947Z,8.48
2017-05-19T03:57:04.487Z,8.12
2017-05-19T03:59:34.991Z,7.50
2017-05-19T04:02:09.736Z,7.08
2017-05-19T04:04:43.511Z,8.06
2017-05-19T04:07:14.196Z,8.08
2017-05-19T04:09:44.676Z,7.44
2017-05-19T04:12:14.227Z,7.58
2017-05-19T04:14:56.948Z,7.92
2017-05-19T04:17:33.875Z,7.32
2017-05-19T04:20:07.983Z,7.06
2017-05-19T04:22:40.891Z,6.68
2017-05-19T04:25:12.423Z,7.56
2017-05-19T04:27:45.439Z,8.68
2017-05-19T04:30:14.991Z,9.30
2017-05-19T04:32:51.040Z,8.54
2017-05-19T04:35:20.592Z,8.32
2017-05-19T04:37:52.467Z,8.72
2017-05-19T04:40:24.067Z,9.10
2017-05-19T04:43:13.935Z,8.48
2017-05-19T04:45:46.159Z,9.04
2017-05-19T04:48:19.339Z,7.86
2017-05-19T04:50:48.922Z,8.70
2017-05-19T04:53:18.491Z,7.94
2017-05-19T04:55:48.055Z,7.78
2017-05-19T04:58:22.258Z,7.64
2017-05-19T05:00:53.755Z,6.96
2017-05-19T05:03:36.147Z,7.62
2017-05-19T05:06:05.714Z,6.16
2017-05-19T05:08:39.027Z,5.90
2017-05-19T05:11:19.582Z,6.10
2017-05-19T05:13:50.114Z,6.34
2017-05-19T05:16:23.343Z,5.62
2017-05-19T05:18:52.879Z,5.40
2017-05-19T05:21:28.775Z,6.10
2017-05-19T05:24:01.434Z,5.32
2017-05-19T05:26:34.231Z,5.94
2017-05-19T05:29:11.559Z,4.86
2017-05-19T05:31:42.010Z,5.38
2017-05-19T05:34:14.214Z,5.06
2017-05-19T05:36:44.835Z,6.48
2017-05-19T05:39:20.214Z,5.50
2017-05-19T05:41:55.096Z,5.08
2017-05-19T05:44:24.622Z,4.68
2017-05-19T05:46:57.718Z,4.66
2017-05-19T05:49:27.446Z,4.60
2017-05-19T05:52:01.018Z,4.74
2017-05-19T05:54:31.534Z,4.44
2017-05-19T05:57:02.078Z,5.16
2017-05-19T05:59:34.263Z,4.12
2017-05-19T06:02:06.922Z,4.22
2017-05-19T06:04:36.466Z,3.90
2017-05-19T06:07:06.013Z,4.70
2017-05-19T06:09:39.215Z,4.32
2017-05-19T06:12:08.790Z,4.90
2017-05-19T06:14:43.662Z,4.88
2017-05-19T06:17:16.430Z,4.02
2017-05-19T06:19:49.166Z,4.52
2017-05-19T06:22:28.524Z,4.42
2017-05-19T06:25:03.494Z,4.48
2017-05-19T06:27:35.038Z,4.48
2017-05-19T06:30:07.909Z,3.76
2017-05-19T06:32:37.466Z,3.94
2017-05-19T06:35:07.001Z,3.54
2017-05-19T06:37:36.574Z,4.90
2017-05-19T06:40:06.206Z,4.18
2017-05-19T06:42:36.493Z,3.66
2017-05-19T06:45:06.034Z,3.48
2017-05-19T06:47:36.333Z,3.68
2017-05-19T06:50:05.874Z,3.58
2017-05-19T06:52:36.178Z,3.82
2017-05-19T06:55:05.697Z,3.80
2017-05-19T06:57:36.095Z,3.62
2017-05-19T07:00:05.626Z,4.00
2017-05-19T07:02:35.953Z,3.92
2017-05-19T07:05:06.221Z,4.10
2017-05-19T07:07:35.754Z,3.96
2017-05-19T07:10:05.378Z,3.50
2017-05-19T07:12:34.909Z,4.54
2017-05-19T07:15:04.449Z,3.76
2017-05-19T07:17:33.985Z,4.22
2017-05-19T07:20:03.521Z,4.76
2017-05-19T07:22:33.053Z,4.84
2017-05-19T07:25:02.589Z,5.00
2017-05-19T07:27:32.123Z,4.80
2017-05-19T07:30:02.393Z,4.80
2017-05-19T07:32:31.949Z,3.84
2017-05-19T07:35:02.229Z,5.78
2017-05-19T07:37:31.764Z,5.70
2017-05-19T07:40:03.249Z,5.60
2017-05-19T07:42:32.801Z,5.80
2017-05-19T07:45:02.337Z,5.22
2017-05-19T07:47:32.641Z,4.96
2017-05-19T07:50:02.169Z,5.58
2017-05-19T07:52:32.457Z,5.06
2017-05-19T07:55:02.745Z,5.26
2017-05-19T07:57:32.297Z,5.18
2017-05-19T08:00:01.825Z,4.42
2017-05-19T08:02:32.300Z,4.32
2017-05-19T08:05:01.833Z,5.34
2017-05-19T08:07:31.384Z,4.70
2017-05-19T08:10:00.920Z,4.52
2017-05-19T08:12:30.460Z,4.60
2017-05-19T08:15:00.040Z,4.66
2017-05-19T08:17:30.216Z,4.58
2017-05-19T08:19:59.760Z,5.12
2017-05-19T08:22:29.288Z,4.16
2017-05-19T08:24:58.844Z,4.70
2017-05-19T08:27:29.228Z,4.88
2017-05-19T08:29:58.769Z,4.42
2017-05-19T08:32:28.304Z,5.22
2017-05-19T08:34:57.864Z,5.08
2017-05-19T08:37:28.136Z,5.30
2017-05-19T08:39:57.672Z,4.98
2017-05-19T08:42:27.225Z,5.32
2017-05-19T08:44:56.756Z,5.22
2017-05-19T08:47:26.381Z,6.06
2017-05-19T08:49:55.997Z,4.88
2017-05-19T08:52:25.508Z,5.38
2017-05-19T08:54:55.068Z,5.24
2017-05-19T08:57:24.588Z,5.22
2017-05-19T08:59:54.117Z,6.18
2017-05-19T09:02:23.648Z,5.86
2017-05-19T09:04:53.428Z,5.50
2017-05-19T09:07:22.960Z,5.70
2017-05-19T09:09:53.256Z,5.52
2017-05-19T09:12:22.783Z,5.48
2017-05-19T09:14:53.075Z,4.80
2017-05-19T09:17:22.671Z,5.62
2017-05-19T09:19:52.224Z,5.80
2017-05-19T09:22:22.500Z,6.18
2017-05-19T09:24:52.039Z,6.52
2017-05-19T09:27:24.748Z,5.76
2017-05-19T09:29:54.284Z,6.48
2017-05-19T09:32:23.829Z,7.32
2017-05-19T09:34:53.403Z,5.74
2017-05-19T09:37:22.904Z,7.04
2017-05-19T09:39:52.456Z,6.30
2017-05-19T09:42:23.087Z,6.20
2017-05-19T09:44:53.357Z,6.10
2017-05-19T09:47:23.195Z,7.54
2017-05-19T09:49:52.723Z,6.32
2017-05-19T09:52:23.004Z,7.18
2017-05-19T09:54:52.531Z,8.98
2017-05-19T09:57:22.453Z,7.12
2017-05-19T09:59:51.979Z,7.54
2017-05-19T10:02:21.515Z,6.80
2017-05-19T10:04:51.060Z,7.38
2017-05-19T10:07:20.595Z,7.96
2017-05-19T10:09:50.475Z,8.32
2017-05-19T10:12:20.026Z,7.56
2017-05-19T10:14:49.583Z,8.32
2017-05-19T10:17:19.178Z,7.84
2017-05-19T10:19:48.686Z,8.12
2017-05-19T10:22:18.214Z,7.56
2017-05-19T10:24:48.027Z,7.52
2017-05-19T10:27:17.559Z,7.12
2017-05-19T10:29:47.304Z,6.80
2017-05-19T10:32:16.835Z,7.50
2017-05-19T10:34:47.542Z,7.70
2017-05-19T10:37:17.074Z,6.94
2017-05-19T10:39:46.606Z,7.44
2017-05-19T10:42:16.899Z,7.78
2017-05-19T10:44:46.426Z,8.06
2017-05-19T10:47:16.715Z,7.66
2017-05-19T10:49:46.238Z,7.04
2017-05-19T10:52:15.794Z,6.80
2017-05-19T10:54:45.323Z,8.08
2017-05-19T10:57:14.871Z,8.98
2017-05-19T10:59:45.139Z,7.92
2017-05-19T11:02:14.694Z,7.48
2017-05-19T11:04:44.271Z,7.82
2017-05-19T11:07:13.838Z,6.92
2017-05-19T11:09:43.387Z,7.00
2017-05-19T11:12:12.918Z,7.00
2017-05-19T11:14:43.207Z,7.44
2017-05-19T11:17:12.734Z,6.38
2017-05-19T11:19:42.279Z,6.60
2017-05-19T11:22:11.807Z,7.30
2017-05-19T11:24:41.354Z,7.60
2017-05-19T11:27:10.882Z,7.20
2017-05-19T11:29:40.418Z,7.62
2017-05-19T11:32:09.947Z,9.08
2017-05-19T11:34:39.494Z,8.64
2017-05-19T11:37:09.764Z,8.62
2017-05-19T11:39:39.330Z,7.78
2017-05-19T11:42:08.874Z,7.70
2017-05-19T11:44:38.418Z,6.80
2017-05-19T11:47:08.685Z,6.70
2017-05-19T11:49:38.217Z,5.60
2017-05-19T11:52:08.626Z,6.10
2017-05-19T11:54:38.169Z,7.14
2017-05-19T11:57:07.705Z,6.08
2017-05-19T11:59:40.863Z,4.84
2017-05-19T12:02:10.438Z,4.30
2017-05-19T12:04:39.990Z,4.58
2017-05-19T12:07:10.277Z,5.02
2017-05-19T12:09:51.730Z,4.42
2017-05-19T12:12:21.301Z,4.44
2017-05-19T12:14:51.578Z,4.98
2017-05-19T12:17:21.113Z,5.10
2017-05-19T12:19:50.649Z,4.92
2017-05-19T12:22:20.178Z,4.36
2017-05-19T12:24:49.719Z,6.34
2017-05-19T12:27:19.249Z,4.46
2017-05-19T12:29:49.533Z,4.76
2017-05-19T12:32:19.373Z,4.32
2017-05-19T12:34:48.910Z,4.44
2017-05-19T12:37:18.433Z,4.12
2017-05-19T12:39:47.978Z,4.78
2017-05-19T12:42:21.133Z,4.52
2017-05-19T12:44:50.785Z,3.92
2017-05-19T12:47:21.829Z,4.50
2017-05-19T12:49:53.238Z,4.38
2017-05-19T12:52:24.691Z,4.74
2017-05-19T12:54:54.825Z,4.88
2017-05-19T12:57:24.361Z,5.58
2017-05-19T12:59:54.653Z,4.86
2017-05-19T13:02:24.197Z,5.34
2017-05-19T13:04:55.117Z,4.38
2017-05-19T13:07:24.649Z,4.20
2017-05-19T13:09:54.205Z,3.98
2017-05-19T13:12:23.733Z,4.38
2017-05-19T13:14:53.274Z,4.38
2017-05-19T13:17:22.797Z,4.56
2017-05-19T13:19:52.334Z,4.10
2017-05-19T13:22:21.877Z,4.26
2017-05-19T13:24:51.414Z,4.54
2017-05-19T13:27:20.984Z,4.36
2017-05-19T13:29:53.548Z,4.92
2017-05-19T13:32:23.869Z,4.04
2017-05-19T13:34:53.396Z,4.28
2017-05-19T13:37:23.056Z,5.36
2017-05-19T13:39:52.597Z,3.82
2017-05-19T13:42:22.873Z,4.16
2017-05-19T13:44:52.409Z,3.90
2017-05-19T13:47:21.940Z,3.82
2017-05-19T13:49:51.468Z,5.08
2017-05-19T13:52:21.012Z,4.94
2017-05-19T13:54:50.552Z,6.10
2017-05-19T13:57:20.832Z,5.96
2017-05-19T13:59:51.328Z,7.26
2017-05-19T14:02:24.936Z,6.48
2017-05-19T14:04:57.804Z,6.72
2017-05-19T14:07:27.429Z,6.38
2017-05-19T14:09:56.968Z,7.60
2017-05-19T14:12:26.804Z,6.16
2017-05-19T14:14:57.072Z,6.74
2017-05-19T14:17:26.608Z,6.44
2017-05-19T14:19:56.160Z,5.68
2017-05-19T14:22:25.741Z,6.54
2017-05-19T14:24:56.005Z,7.60
2017-05-19T14:27:25.584Z,7.30
2017-05-19T14:29:55.152Z,9.36
2017-05-19T14:32:24.702Z,8.88
2017-05-19T14:34:54.972Z,8.66
2017-05-19T14:37:25.484Z,9.54
2017-05-19T14:39:55.024Z,8.68
2017-05-19T14:42:24.580Z,8.88
2017-05-19T14:44:54.112Z,8.84
2017-05-19T14:47:23.656Z,7.16
2017-05-19T14:49:53.933Z,8.20
2017-05-19T14:52:23.475Z,7.32
2017-05-19T14:54:54.751Z,8.22
2017-05-19T14:57:24.437Z,7.44
2017-05-19T14:59:54.748Z,7.32
2017-05-19T15:02:24.291Z,7.28
2017-05-19T15:04:53.829Z,6.14
2017-05-19T15:07:24.527Z,6.22
2017-05-19T15:09:54.288Z,5.86
2017-05-19T15:12:27.601Z,5.94
2017-05-19T15:14:57.128Z,6.46
2017-05-19T15:17:26.675Z,5.90
2017-05-19T15:19:56.241Z,6.32
2017-05-19T15:22:25.784Z,5.78
2017-05-19T15:24:55.311Z,5.78
2017-05-19T15:27:24.908Z,4.72
2017-05-19T15:29:56.423Z,4.62
2017-05-19T15:32:25.951Z,4.32
2017-05-19T15:34:55.487Z,4.46
2017-05-19T15:37:25.036Z,4.02
2017-05-19T15:39:54.567Z,3.56
2017-05-19T15:42:24.111Z,4.52
2017-05-19T15:44:57.668Z,3.72
2017-05-19T15:47:29.204Z,3.22
2017-05-19T15:49:58.751Z,2.38
2017-05-19T15:52:28.291Z,3.02
2017-05-19T15:55:00.583Z,2.20
2017-05-19T15:57:30.119Z,2.02
2017-05-19T15:59:59.655Z,1.40
2017-05-19T16:02:29.915Z,1.36
2017-05-19T16:04:59.483Z,1.50
2017-05-19T16:07:29.747Z,1.42
2017-05-19T16:09:59.295Z,1.26
2017-05-19T16:12:30.787Z,1.00
2017-05-19T16:15:03.170Z,0.70
2017-05-19T16:18:09.057Z,1.00
2017-05-19T16:20:37.847Z,0.70
2017-05-19T16:23:06.602Z,0.88
2017-05-19T16:25:35.387Z,1.18
2017-05-19T16:28:04.162Z,0.72
2017-05-19T16:30:32.927Z,0.52
2017-05-19T16:33:02.730Z,0.84
2017-05-19T16:35:31.499Z,0.76
2017-05-19T16:38:03.726Z,0.88
2017-05-19T16:40:32.502Z,1.46
2017-05-19T16:43:01.343Z,1.40
2017-05-19T16:45:30.698Z,1.10
2017-05-19T16:47:59.527Z,1.44
2017-05-19T16:50:28.296Z,1.42
2017-05-19T16:52:57.130Z,1.28
2017-05-19T16:55:26.874Z,1.00
2017-05-19T16:57:54.870Z,1.14
2017-05-19T17:00:23.650Z,1.43
2017-05-19T17:02:53.339Z,1.30
2017-05-19T17:05:22.118Z,1.22
2017-05-19T17:07:50.907Z,1.30
2017-05-19T17:10:21.646Z,1.03
2017-05-19T17:12:50.542Z,1.45
2017-05-19T17:15:20.254Z,1.13
2017-05-19T17:17:52.534Z,1.48
2017-05-19T17:20:21.310Z,1.50
2017-05-19T17:22:50.094Z,1.58
2017-05-19T17:25:18.890Z,1.47
2017-05-19T17:27:47.662Z,1.48
2017-05-19T17:30:18.405Z,1.67
2017-05-19T17:32:47.183Z,1.53
2017-05-19T17:35:15.950Z,1.28
2017-05-19T17:37:44.734Z,1.32
2017-05-19T17:40:13.522Z,1.35
2017-05-19T17:42:43.249Z,1.40
2017-05-19T17:45:12.026Z,1.92
2017-05-19T17:47:41.185Z,1.70
2017-05-19T17:50:10.850Z,2.10
2017-05-19T17:52:39.635Z,1.48
2017-05-19T17:55:09.358Z,1.20
2017-05-19T17:57:41.649Z,1.15
2017-05-19T18:00:10.498Z,1.38
2017-05-19T18:02:39.270Z,1.28
2017-05-19T18:05:08.050Z,1.48
2017-05-19T18:07:36.815Z,1.25
2017-05-19T18:10:06.577Z,1.73
2017-05-19T18:12:35.370Z,1.73
2017-05-19T18:15:04.150Z,1.92
2017-05-19T18:17:36.034Z,2.78
2017-05-19T18:20:04.801Z,2.48
2017-05-19T18:22:33.569Z,2.58
2017-05-19T18:25:02.485Z,2.77
2017-05-19T18:27:31.257Z,2.87
2017-05-19T18:30:00.030Z,2.55
2017-05-19T18:32:28.856Z,3.68
2017-05-19T18:34:57.633Z,3.23
2017-05-19T18:37:26.409Z,3.60
2017-05-19T18:39:55.193Z,3.60
2017-05-19T18:42:23.957Z,4.07
2017-05-19T18:44:52.733Z,3.10
2017-05-19T18:47:21.517Z,3.60
2017-05-19T18:49:50.286Z,2.93
2017-05-19T18:52:19.057Z,3.48
2017-05-19T18:54:48.729Z,3.27
2017-05-19T18:57:17.509Z,3.58
2017-05-19T18:59:46.293Z,3.60
2017-05-19T19:02:15.077Z,2.95
2017-05-19T19:04:43.853Z,4.33
2017-05-19T19:07:13.612Z,3.20
2017-05-19T19:09:42.397Z,3.32
2017-05-19T19:12:11.177Z,3.38
2017-05-19T19:14:39.944Z,3.10
2017-05-19T19:17:08.761Z,3.38
2017-05-19T19:19:37.553Z,3.23
2017-05-19T19:22:06.309Z,2.50
2017-05-19T19:24:35.097Z,3.02
2017-05-19T19:27:03.876Z,2.32
2017-05-19T19:29:32.729Z,2.80
2017-05-19T19:32:01.533Z,2.77
2017-05-19T19:34:30.305Z,2.58
2017-05-19T19:36:59.072Z,2.52
2017-05-19T19:39:28.844Z,2.75
2017-05-19T19:41:57.617Z,4.08
2017-05-19T19:44:26.397Z,2.68
2017-05-19T19:46:55.176Z,2.87
2017-05-19T19:49:23.945Z,2.52
2017-05-19T19:51:52.712Z,2.22
2017-05-19T19:54:22.424Z,1.63
2017-05-19T19:56:51.185Z,1.82
2017-05-19T19:59:19.997Z,1.63
2017-05-19T20:01:48.776Z,2.12
2017-05-19T20:04:17.545Z,1.78
2017-05-19T20:09:24.412Z,1.40
2017-05-19T20:11:53.208Z,1.28
2017-05-19T20:14:21.972Z,1.18
2017-05-19T20:16:50.763Z,1.03
2017-05-19T20:19:19.596Z,1.25
2017-05-19T20:21:48.540Z,1.30
2017-05-19T20:24:17.332Z,1.53
2017-05-19T20:26:46.095Z,1.45
2017-05-19T20:29:14.864Z,1.55
2017-05-19T20:31:43.660Z,1.70
2017-05-19T20:34:12.432Z,1.68
2017-05-19T20:36:41.199Z,1.30
2017-05-19T20:39:10.167Z,1.50
2017-05-19T20:41:38.956Z,1.20
2017-05-19T20:44:08.727Z,1.35
2017-05-19T20:46:37.527Z,1.50
2017-05-19T20:49:07.211Z,1.58
2017-05-19T20:51:35.999Z,1.60
2017-05-19T20:54:04.779Z,1.43
2017-05-19T20:56:33.547Z,1.23
2017-05-19T20:59:02.319Z,1.37
2017-05-19T21:01:33.651Z,1.78
2017-05-19T21:04:03.348Z,1.80
2017-05-19T21:06:32.124Z,1.87
2017-05-19T21:09:00.979Z,1.73
2017-05-19T21:11:29.735Z,2.38
2017-05-19T21:13:58.559Z,2.05
2017-05-19T21:16:27.543Z,2.53
2017-05-19T21:18:56.399Z,2.50
2017-05-19T21:21:25.175Z,2.37
2017-05-19T21:23:54.004Z,2.78
2017-05-19T21:26:22.811Z,2.72
2017-05-19T21:28:51.579Z,4.87
2017-05-19T21:31:20.359Z,4.27
2017-05-19T21:33:49.127Z,3.88
2017-05-19T21:36:17.918Z,4.37
2017-05-19T21:38:46.687Z,4.02
2017-05-19T21:41:15.443Z,4.08
2017-05-19T21:43:45.159Z,4.13
2017-05-19T21:48:39.940Z,3.73
2017-05-19T21:51:08.802Z,4.68
2017-05-19T21:53:37.572Z,5.38
2017-05-19T21:56:06.335Z,3.82
2017-05-19T21:58:35.118Z,5.65
2017-05-19T22:01:03.883Z,4.07
2017-05-19T22:03:32.652Z,5.17
2017-05-19T22:06:01.426Z,5.45
2017-05-19T22:08:30.196Z,5.23
2017-05-19T22:10:58.958Z,4.62
2017-05-19T22:13:27.742Z,6.98
2017-05-19T22:15:57.715Z,5.87
2017-05-19T22:18:26.463Z,5.92
2017-05-19T22:20:55.243Z,5.72
2017-05-19T22:23:24.019Z,6.72
2017-05-19T22:25:52.843Z,6.10
2017-05-19T22:28:21.606Z,6.05
2017-05-19T22:30:50.586Z,5.82
2017-05-19T22:33:19.422Z,5.65
2017-05-19T22:35:48.143Z,5.35
2017-05-19T22:38:16.918Z,6.05
2017-05-19T22:40:45.682Z,5.90
2017-05-19T22:43:14.458Z,5.33
2017-05-19T22:45:43.227Z,7.37
2017-05-19T22:48:11.993Z,5.43
2017-05-19T22:50:40.762Z,5.88
2017-05-19T22:53:09.526Z,5.82
2017-05-19T22:55:38.285Z,5.22
2017-05-19T22:58:07.066Z,5.17
2017-05-19T23:00:35.870Z,5.57
2017-05-19T23:03:04.602Z,5.83
2017-05-19T23:05:33.382Z,5.45
2017-05-19T23:08:02.149Z,5.95
2017-05-19T23:10:30.918Z,6.10
2017-05-19T23:12:59.727Z,4.48
2017-05-19T23:15:28.493Z,4.92
2017-05-19T23:17:57.266Z,6.08
2017-05-19T23:20:26.050Z,5.75
2017-05-19T23:22:54.802Z,4.75
2017-05-19T23:25:23.565Z,4.33
2017-05-19T23:27:52.343Z,5.05
2017-05-19T23:30:21.105Z,5.12
2017-05-19T23:32:49.869Z,4.82
2017-05-19T23:35:18.673Z,3.97
2017-05-19T23:37:47.442Z,4.83
2017-05-19T23:40:16.197Z,5.03
2017-05-19T23:42:45.002Z,3.85
2017-05-19T23:45:13.785Z,3.78
2017-05-19T23:47:42.560Z,4.03
2017-05-19T23:50:11.377Z,3.72
2017-05-19T23:52:40.151Z,3.93
2017-05-19T23:55:08.913Z,4.37
2017-05-19T23:57:37.693Z,3.90
